Terminal Aerodrome Forecast
Issued by NWS

Home | Current Version | Previous Version | Graphics & Text | Print | Product List | Glossary On
Versions: 1 2 3 4 5 6 7 8 9 10 11 12 13 14 15 16 17 18 19 20 21 22 23 24 25 26 27 28 29 30 31 32
000
FTUS43 KLOT 241354 AAA
TAFDPA
TAF AMD
KDPA 241354Z 2414/2512 15006KT P6SM BKN090
     FM241700 14008KT P6SM BKN070
     FM242030 08011KT P6SM OVC060
     FM250300 09012KT P6SM VCSH OVC045
     FM251100 09015KT 5SM -RA OVC020=

USA.gov is the U.S. government's official web portal to all federal, state and local government web resources and services.